createdAt,value
2023-02-12T00:01:16.230Z,64.95
2023-02-12T00:03:46.529Z,64.25
2023-02-12T00:06:19.098Z,63.99
2023-02-12T00:08:52.014Z,64.08
2023-02-12T00:11:24.890Z,62.76
2023-02-12T00:14:03.559Z,64.20
2023-02-12T00:16:31.416Z,63.43
2023-02-12T00:18:59.948Z,63.15
2023-02-12T00:21:31.875Z,63.60
2023-02-12T00:23:59.752Z,63.31
2023-02-12T00:26:27.667Z,62.70
2023-02-12T00:28:55.926Z,63.05
2023-02-12T00:31:28.732Z,62.83
2023-02-12T00:33:56.811Z,63.60
2023-02-12T00:36:30.003Z,63.58
2023-02-12T00:39:01.352Z,63.43
2023-02-12T00:41:29.447Z,62.67
2023-02-12T00:44:02.455Z,63.16
2023-02-12T00:46:30.309Z,63.69
2023-02-12T00:49:00.311Z,62.65
2023-02-12T00:51:35.272Z,63.08
2023-02-12T00:54:07.419Z,63.24
2023-02-12T00:56:35.216Z,63.19
2023-02-12T00:59:02.966Z,62.96
2023-02-12T01:01:36.608Z,62.58
2023-02-12T01:04:04.538Z,62.89
2023-02-12T01:06:34.083Z,62.82
2023-02-12T01:09:02.001Z,62.15
2023-02-12T01:11:31.176Z,63.05
2023-02-12T01:14:00.101Z,63.82
2023-02-12T01:16:28.593Z,63.56
2023-02-12T01:18:56.956Z,64.09
2023-02-12T01:21:32.747Z,63.76
2023-02-12T01:24:08.466Z,62.99
2023-02-12T01:26:38.102Z,63.04
2023-02-12T01:29:07.474Z,62.46
2023-02-12T01:31:38.383Z,62.82
2023-02-12T01:34:07.670Z,62.51
2023-02-12T01:36:37.531Z,62.94
2023-02-12T01:39:06.578Z,62.57
2023-02-12T01:41:37.364Z,62.50
2023-02-12T01:44:17.911Z,63.25
2023-02-12T01:46:46.778Z,62.38
2023-02-12T01:49:18.601Z,63.30
2023-02-12T01:51:47.577Z,62.88
2023-02-12T01:54:22.269Z,63.90
2023-02-12T01:56:53.282Z,64.87
2023-02-12T01:59:28.158Z,64.81
2023-02-12T02:01:56.442Z,63.98
2023-02-12T02:04:27.170Z,64.42
2023-02-12T02:06:58.493Z,64.42
2023-02-12T02:09:27.257Z,64.00
2023-02-12T02:12:15.794Z,66.41
2023-02-12T02:14:45.381Z,65.32
2023-02-12T02:17:32.000Z,64.85
2023-02-12T02:20:46.756Z,65.55
2023-02-12T02:23:32.289Z,64.98
2023-02-12T02:26:33.947Z,65.06
2023-02-12T02:29:22.201Z,64.88
2023-02-12T02:31:54.929Z,67.43
2023-02-12T02:34:27.500Z,69.50
2023-02-12T02:37:02.912Z,70.35
2023-02-12T02:39:38.783Z,68.02
2023-02-12T02:42:11.356Z,67.87
2023-02-12T02:44:47.795Z,71.61
2023-02-12T02:47:22.936Z,70.86
2023-02-12T02:50:01.963Z,69.13
2023-02-12T02:52:33.635Z,67.48
2023-02-12T02:55:05.132Z,69.18
2023-02-12T02:57:42.305Z,68.14
2023-02-12T03:00:15.432Z,67.67
2023-02-12T03:02:47.316Z,68.15
2023-02-12T03:05:21.429Z,67.21
2023-02-12T03:07:52.414Z,66.74
2023-02-12T03:10:22.925Z,66.92
2023-02-12T03:12:54.368Z,66.75
2023-02-12T03:15:27.833Z,68.62
2023-02-12T03:18:00.657Z,68.88
2023-02-12T03:20:30.778Z,68.42
2023-02-12T03:23:05.069Z,68.66
2023-02-12T03:25:37.063Z,67.44
2023-02-12T03:28:08.296Z,68.93
2023-02-12T03:30:45.284Z,69.88
2023-02-12T03:33:32.100Z,66.77
2023-02-12T03:36:05.371Z,67.50
2023-02-12T03:38:37.969Z,66.57
2023-02-12T03:41:12.960Z,66.33
2023-02-12T03:43:50.303Z,67.43
2023-02-12T03:46:22.347Z,68.58
2023-02-12T03:49:00.558Z,67.35
2023-02-12T03:51:34.611Z,67.73
2023-02-12T03:54:05.072Z,65.94
2023-02-12T03:56:43.568Z,65.58
2023-02-12T03:59:25.376Z,66.79
2023-02-12T04:01:54.831Z,67.86
2023-02-12T04:04:27.843Z,68.71
2023-02-12T04:06:56.205Z,66.81
2023-02-12T04:09:26.112Z,65.66
2023-02-12T04:12:04.024Z,66.23
2023-02-12T04:14:39.837Z,65.15
2023-02-12T04:17:13.138Z,65.08
2023-02-12T04:19:51.297Z,65.25
2023-02-12T04:22:31.198Z,65.65
2023-02-12T04:25:10.522Z,64.94
2023-02-12T04:27:46.346Z,65.65
2023-02-12T04:30:18.457Z,64.45
2023-02-12T04:32:49.785Z,65.72
2023-02-12T04:35:23.262Z,64.58
2023-02-12T04:37:54.041Z,65.06
2023-02-12T04:40:28.125Z,65.43
2023-02-12T04:43:02.264Z,64.88
2023-02-12T04:45:34.609Z,65.69
2023-02-12T04:48:09.956Z,65.44
2023-02-12T04:50:47.519Z,65.39
2023-02-12T04:53:18.512Z,66.16
2023-02-12T04:55:47.426Z,64.88
2023-02-12T04:58:18.294Z,64.55
2023-02-12T05:00:46.358Z,65.34
2023-02-12T05:03:14.189Z,65.28
2023-02-12T05:05:43.394Z,66.04
2023-02-12T05:08:15.940Z,65.77
2023-02-12T05:10:43.760Z,64.93
2023-02-12T05:13:14.339Z,64.51
2023-02-12T05:15:42.320Z,64.70
2023-02-12T05:18:11.428Z,64.28
2023-02-12T05:20:39.224Z,64.25
2023-02-12T05:23:08.434Z,64.61
2023-02-12T05:25:39.092Z,64.63
2023-02-12T05:28:07.267Z,66.34
2023-02-12T05:30:37.987Z,64.88
2023-02-12T05:33:05.874Z,66.72
2023-02-12T05:35:35.815Z,66.40
2023-02-12T05:38:06.704Z,68.24
2023-02-12T05:40:40.292Z,66.59
2023-02-12T05:43:08.140Z,65.88
2023-02-12T05:45:38.377Z,65.54
2023-02-12T05:48:06.301Z,65.85
2023-02-12T05:50:34.233Z,66.43
2023-02-12T05:53:09.983Z,67.14
2023-02-12T05:55:42.122Z,65.75
2023-02-12T05:58:10.359Z,65.77
2023-02-12T06:00:40.580Z,65.33
2023-02-12T06:03:08.354Z,65.82
2023-02-12T06:05:38.740Z,65.36
2023-02-12T06:08:06.630Z,66.57
2023-02-12T06:10:34.402Z,66.48
2023-02-12T06:13:03.566Z,67.36
2023-02-12T06:15:31.638Z,67.04
2023-02-12T06:18:02.248Z,67.18
2023-02-12T06:20:32.245Z,66.63
2023-02-12T06:23:00.032Z,66.39
2023-02-12T06:25:28.094Z,66.01
2023-02-12T06:27:58.543Z,66.86
2023-02-12T06:30:38.814Z,66.61
2023-02-12T06:33:06.552Z,66.28
2023-02-12T06:35:38.607Z,66.39
2023-02-12T06:38:16.637Z,66.01
2023-02-12T06:40:44.515Z,66.11
2023-02-12T06:43:12.382Z,68.07
2023-02-12T06:45:41.593Z,69.18
2023-02-12T06:48:09.408Z,68.57
2023-02-12T06:50:39.904Z,69.36
2023-02-12T06:53:10.766Z,68.64
2023-02-12T06:55:40.932Z,68.39
2023-02-12T06:58:17.818Z,67.41
2023-02-12T07:00:47.372Z,67.27
2023-02-12T07:03:15.263Z,66.94
2023-02-12T07:05:44.957Z,67.23
2023-02-12T07:08:15.309Z,67.01
2023-02-12T07:10:49.479Z,67.74
2023-02-12T07:13:17.400Z,68.24
2023-02-12T07:15:46.650Z,69.40
2023-02-12T07:18:14.548Z,69.73
2023-02-12T07:20:47.609Z,68.50
2023-02-12T07:23:16.427Z,67.66
2023-02-12T07:25:46.836Z,66.91
2023-02-12T07:28:20.068Z,67.51
2023-02-12T07:30:50.443Z,68.21
2023-02-12T07:33:20.763Z,68.80
2023-02-12T07:35:50.717Z,69.67
2023-02-12T07:38:21.081Z,70.52
2023-02-12T07:40:51.067Z,71.22
2023-02-12T07:43:30.933Z,72.66
2023-02-12T07:46:10.592Z,71.88
2023-02-12T07:48:39.663Z,72.93
2023-02-12T07:51:09.163Z,72.52
2023-02-12T07:53:37.832Z,72.18
2023-02-12T07:56:07.267Z,71.43
2023-02-12T07:58:37.554Z,71.21
2023-02-12T08:01:18.670Z,70.70
2023-02-12T08:03:50.882Z,70.44
2023-02-12T08:06:20.381Z,69.30
2023-02-12T08:08:48.666Z,69.44
2023-02-12T08:11:16.676Z,69.01
2023-02-12T08:13:47.688Z,68.57
2023-02-12T08:16:18.479Z,68.36
2023-02-12T08:18:49.731Z,68.56
2023-02-12T08:21:19.609Z,67.31
2023-02-12T08:23:49.941Z,67.35
2023-02-12T08:26:21.845Z,66.62
2023-02-12T08:28:52.110Z,67.89
2023-02-12T08:31:23.454Z,65.99
2023-02-12T08:33:53.002Z,66.14
2023-02-12T08:36:23.221Z,66.42
2023-02-12T08:38:54.074Z,65.94
2023-02-12T08:41:23.396Z,67.32
2023-02-12T08:44:23.003Z,68.51
2023-02-12T08:46:46.774Z,67.60
2023-02-12T08:49:17.629Z,67.76
2023-02-12T08:51:50.082Z,67.79
2023-02-12T08:54:21.238Z,68.93
2023-02-12T08:56:49.089Z,69.51
2023-02-12T08:59:17.701Z,69.18
2023-02-12T09:01:48.231Z,68.63
2023-02-12T09:04:24.177Z,67.77
2023-02-12T09:06:53.239Z,68.28
2023-02-12T09:09:24.297Z,68.22
2023-02-12T09:11:52.839Z,68.74
2023-02-12T09:14:24.309Z,68.95
2023-02-12T09:16:54.670Z,69.05
2023-02-12T09:19:22.764Z,68.87
2023-02-12T09:21:55.516Z,69.36
2023-02-12T09:24:24.200Z,68.93
2023-02-12T09:27:16.963Z,70.23
2023-02-12T09:29:47.971Z,70.00
2023-02-12T09:32:17.373Z,72.00
2023-02-12T09:34:47.878Z,71.79
2023-02-12T09:37:16.706Z,73.38
2023-02-12T09:39:45.018Z,73.12
2023-02-12T09:42:36.535Z,72.54
2023-02-12T09:45:08.747Z,71.51
2023-02-12T09:47:47.145Z,70.32
2023-02-12T09:50:27.679Z,70.83
2023-02-12T09:52:57.923Z,69.94
2023-02-12T09:55:28.796Z,69.81
2023-02-12T09:57:56.808Z,68.89
2023-02-12T10:00:31.785Z,70.16
2023-02-12T10:03:08.796Z,71.00
2023-02-12T10:05:42.608Z,72.19
2023-02-12T10:08:33.418Z,73.00
2023-02-12T10:11:18.963Z,72.98
2023-02-12T10:13:54.673Z,74.06
2023-02-12T10:16:34.683Z,74.41
2023-02-12T10:19:21.865Z,75.55
2023-02-12T10:22:00.446Z,75.06
2023-02-12T10:24:43.995Z,75.49
2023-02-12T10:27:18.124Z,74.69
2023-02-12T10:29:47.973Z,75.02
2023-02-12T10:32:26.189Z,74.23
2023-02-12T10:34:57.450Z,74.13
2023-02-12T10:37:30.306Z,73.31
2023-02-12T10:40:05.642Z,72.74
2023-02-12T10:42:42.433Z,72.70
2023-02-12T10:45:21.445Z,72.00
2023-02-12T10:47:55.055Z,73.37
2023-02-12T10:50:45.004Z,73.41
2023-02-12T10:53:22.499Z,74.09
2023-02-12T10:55:50.510Z,73.66
2023-02-12T10:58:21.804Z,73.75
2023-02-12T11:01:00.342Z,74.41
2023-02-12T11:03:30.668Z,74.32
2023-02-12T11:06:14.414Z,73.50
2023-02-12T11:08:42.949Z,73.61
2023-02-12T11:11:18.475Z,73.20
2023-02-12T11:13:49.010Z,73.68
2023-02-12T11:16:28.140Z,73.15
2023-02-12T11:19:00.030Z,73.07
2023-02-12T11:21:32.555Z,72.85
2023-02-12T11:24:22.495Z,73.54
2023-02-12T11:26:50.921Z,75.12
2023-02-12T11:29:21.086Z,74.03
2023-02-12T11:32:02.547Z,72.87
2023-02-12T11:34:31.950Z,72.99
2023-02-12T11:37:14.240Z,72.10
2023-02-12T11:39:42.212Z,73.48
2023-02-12T11:42:17.555Z,73.95
2023-02-12T11:44:56.517Z,73.72
2023-02-12T11:47:26.904Z,75.86
2023-02-12T11:50:00.483Z,75.94
2023-02-12T11:52:32.754Z,75.56
2023-02-12T11:55:03.261Z,74.91
2023-02-12T11:57:49.352Z,76.31
2023-02-12T12:00:19.122Z,75.36
2023-02-12T12:02:50.809Z,73.43
2023-02-12T12:05:21.202Z,72.69
2023-02-12T12:07:54.671Z,73.60
2023-02-12T12:10:31.370Z,73.48
2023-02-12T12:13:08.519Z,75.47
2023-02-12T12:15:57.876Z,77.02
2023-02-12T12:18:48.036Z,75.26
2023-02-12T12:21:21.990Z,75.58
2023-02-12T12:23:54.325Z,74.92
2023-02-12T12:26:25.344Z,75.02
2023-02-12T12:28:58.718Z,75.39
2023-02-12T12:31:30.376Z,75.30
2023-02-12T12:34:03.494Z,74.02
2023-02-12T12:36:51.171Z,73.88
2023-02-12T12:39:30.857Z,76.02
2023-02-12T12:42:30.957Z,74.54
2023-02-12T12:45:08.747Z,74.37
2023-02-12T12:47:45.311Z,74.67
2023-02-12T12:50:33.037Z,75.19
2023-02-12T12:53:10.768Z,73.10
2023-02-12T12:56:17.084Z,73.48
2023-02-12T12:58:55.581Z,73.13
2023-02-12T13:01:42.173Z,73.93
2023-02-12T13:04:31.452Z,71.44
2023-02-12T13:07:13.612Z,71.93
2023-02-12T13:10:02.540Z,72.15
2023-02-12T13:13:01.983Z,72.59
2023-02-12T13:15:35.514Z,71.30
2023-02-12T13:18:14.795Z,71.39
2023-02-12T13:20:48.754Z,71.81
2023-02-12T13:23:24.547Z,70.37
2023-02-12T13:26:06.481Z,69.85
2023-02-12T13:28:40.971Z,70.64
2023-02-12T13:31:32.098Z,70.08
2023-02-12T13:34:05.324Z,70.54
2023-02-12T13:36:38.140Z,70.69
2023-02-12T13:39:09.028Z,70.17
2023-02-12T13:41:37.391Z,68.55
2023-02-12T13:44:14.917Z,68.47
2023-02-12T13:46:55.704Z,67.08
2023-02-12T13:49:30.597Z,67.63
2023-02-12T13:52:04.821Z,65.75
2023-02-12T13:54:48.683Z,66.01
2023-02-12T13:57:20.578Z,65.42
2023-02-12T13:59:55.831Z,64.97
2023-02-12T14:02:43.996Z,66.22
2023-02-12T14:05:24.495Z,66.46
2023-02-12T14:07:53.847Z,66.46
2023-02-12T14:10:27.878Z,67.47
2023-02-12T14:12:58.884Z,66.09
2023-02-12T14:15:34.812Z,68.23
2023-02-12T14:18:22.163Z,68.81
2023-02-12T14:21:09.708Z,68.01
2023-02-12T14:23:37.659Z,66.93
2023-02-12T14:26:09.120Z,66.88
2023-02-12T14:28:49.156Z,66.85
2023-02-12T14:31:39.633Z,67.04
2023-02-12T14:34:48.222Z,67.57
2023-02-12T14:37:38.187Z,66.21
2023-02-12T14:40:31.761Z,66.53
2023-02-12T14:43:15.880Z,67.44
2023-02-12T14:45:43.741Z,67.64
2023-02-12T14:48:45.124Z,66.60
2023-02-12T14:51:17.640Z,67.51
2023-02-12T14:53:47.870Z,67.61
2023-02-12T14:56:22.766Z,67.57
2023-02-12T14:58:51.334Z,66.62
2023-02-12T15:01:35.168Z,67.57
2023-02-12T15:04:13.326Z,67.49
2023-02-12T15:06:44.911Z,67.39
2023-02-12T15:09:23.263Z,67.78
2023-02-12T15:11:54.270Z,67.07
2023-02-12T15:14:25.454Z,67.05
2023-02-12T15:16:59.875Z,68.11
2023-02-12T15:19:42.136Z,68.33
2023-02-12T15:22:24.655Z,68.32
2023-02-12T15:24:52.823Z,68.25
2023-02-12T15:27:21.808Z,68.79
2023-02-12T15:29:52.514Z,68.17
2023-02-12T15:32:27.139Z,68.54
2023-02-12T15:34:59.121Z,68.29
2023-02-12T15:40:18.101Z,69.90
2023-02-12T15:42:54.369Z,70.64
2023-02-12T15:45:26.918Z,70.06
2023-02-12T15:48:03.756Z,70.05
2023-02-12T15:50:34.689Z,70.00
2023-02-12T15:53:04.600Z,69.63
2023-02-12T15:55:40.104Z,69.54
2023-02-12T15:58:25.992Z,69.97
2023-02-12T16:00:57.511Z,70.86
2023-02-12T16:03:27.302Z,70.26
2023-02-12T16:06:01.802Z,69.40
2023-02-12T16:08:30.674Z,68.85
2023-02-12T16:11:13.719Z,68.77
2023-02-12T16:13:44.985Z,69.07
2023-02-12T16:16:26.068Z,69.73
2023-02-12T16:19:20.459Z,69.71
2023-02-12T16:21:52.232Z,68.44
2023-02-12T16:24:27.948Z,69.39
2023-02-12T16:26:56.366Z,70.07
2023-02-12T16:29:27.146Z,69.97
2023-02-12T16:31:57.994Z,70.42
2023-02-12T16:34:37.514Z,69.41
2023-02-12T16:37:43.588Z,69.75
2023-02-12T16:40:26.197Z,70.29
2023-02-12T16:43:03.282Z,70.00
2023-02-12T16:45:38.626Z,69.90
2023-02-12T16:48:25.555Z,70.57
2023-02-12T16:50:58.996Z,70.08
2023-02-12T16:53:43.129Z,70.45
2023-02-12T16:59:03.991Z,70.94
2023-02-12T17:01:34.181Z,71.81
2023-02-12T17:04:08.705Z,70.28
2023-02-12T17:06:36.619Z,70.34
2023-02-12T17:09:07.988Z,70.37
2023-02-12T17:11:35.861Z,70.70
2023-02-12T17:14:06.384Z,70.84
2023-02-12T17:16:36.103Z,70.10
2023-02-12T17:19:06.945Z,69.55
2023-02-12T17:21:38.317Z,69.22
2023-02-12T17:24:10.178Z,69.47
2023-02-12T17:26:40.674Z,69.69
2023-02-12T17:29:08.636Z,70.40
2023-02-12T17:31:37.604Z,71.06
2023-02-12T17:34:07.700Z,70.95
2023-02-12T17:36:41.549Z,69.53
2023-02-12T17:39:15.555Z,70.64
2023-02-12T17:41:45.153Z,70.20
2023-02-12T17:44:18.991Z,70.40
2023-02-12T17:46:46.870Z,69.73
2023-02-12T17:49:19.731Z,69.56
2023-02-12T17:51:48.330Z,68.45
2023-02-12T17:54:21.065Z,67.85
2023-02-12T17:56:50.493Z,67.90
2023-02-12T17:59:18.303Z,68.02
2023-02-12T18:01:55.114Z,67.82
2023-02-12T18:04:22.978Z,67.24
2023-02-12T18:06:52.315Z,67.54
2023-02-12T18:09:22.636Z,66.94
2023-02-12T18:11:53.427Z,67.00
2023-02-12T18:14:23.747Z,67.48
2023-02-12T18:16:58.243Z,67.55
2023-02-12T18:19:26.708Z,67.66
2023-02-12T18:21:56.739Z,67.45
2023-02-12T18:24:31.740Z,67.76
2023-02-12T18:27:02.220Z,68.68
2023-02-12T18:29:33.143Z,67.53
2023-02-12T18:32:03.584Z,67.06
2023-02-12T18:34:33.337Z,67.09
2023-02-12T18:37:01.445Z,68.01
2023-02-12T18:39:33.850Z,68.18
2023-02-12T18:42:02.416Z,67.62
2023-02-12T18:44:37.261Z,68.70
2023-02-12T18:47:12.862Z,68.01
2023-02-12T18:49:40.677Z,67.99
2023-02-12T18:52:08.696Z,67.63
2023-02-12T18:54:38.889Z,67.91
2023-02-12T18:57:06.664Z,67.60
2023-02-12T18:59:38.394Z,67.35
2023-02-12T19:02:15.704Z,67.60
2023-02-12T19:04:46.450Z,69.54
2023-02-12T19:07:16.988Z,68.99
2023-02-12T19:09:50.051Z,67.68
2023-02-12T19:12:20.570Z,68.14
2023-02-12T19:14:48.418Z,68.28
2023-02-12T19:17:16.245Z,69.07
2023-02-12T19:19:43.999Z,69.34
2023-02-12T19:22:14.493Z,68.53
2023-02-12T19:24:46.921Z,69.30
2023-02-12T19:27:16.491Z,70.15
2023-02-12T19:29:47.307Z,69.50
2023-02-12T19:32:17.370Z,69.01
2023-02-12T19:34:47.397Z,68.69
2023-02-12T19:37:18.023Z,67.66
2023-02-12T19:39:46.209Z,67.39
2023-02-12T19:42:17.599Z,67.12
2023-02-12T19:44:47.518Z,66.63
2023-02-12T19:47:18.227Z,67.43
2023-02-12T19:49:50.599Z,66.70
2023-02-12T19:52:18.493Z,67.51
2023-02-12T19:54:47.269Z,67.49
2023-02-12T19:57:21.222Z,66.99
2023-02-12T19:59:53.390Z,66.12
2023-02-12T20:02:21.266Z,66.70
2023-02-12T20:04:50.767Z,66.26
2023-02-12T20:07:18.590Z,66.57
2023-02-12T20:09:46.441Z,68.13
2023-02-12T20:12:14.311Z,68.36
2023-02-12T20:14:44.726Z,67.44
2023-02-12T20:17:18.662Z,67.86
2023-02-12T20:19:51.225Z,68.39
2023-02-12T20:22:19.096Z,68.18
2023-02-12T20:24:47.049Z,69.05
2023-02-12T20:27:14.909Z,69.17
2023-02-12T20:29:44.808Z,69.41
2023-02-12T20:32:14.813Z,70.52
2023-02-12T20:34:51.497Z,71.34
2023-02-12T20:37:21.971Z,71.82
2023-02-12T20:39:49.746Z,71.92
2023-02-12T20:42:23.368Z,72.59
2023-02-12T20:45:01.855Z,72.55
2023-02-12T20:47:32.089Z,72.54
2023-02-12T20:50:02.695Z,72.21
2023-02-12T20:52:32.082Z,72.69
2023-02-12T20:55:01.157Z,72.89
2023-02-12T20:57:31.430Z,72.99
2023-02-12T20:59:59.266Z,72.09
2023-02-12T21:02:27.170Z,71.58
2023-02-12T21:04:56.201Z,72.47
2023-02-12T21:07:25.447Z,71.82
2023-02-12T21:09:54.364Z,71.75
2023-02-12T21:12:23.310Z,71.94
2023-02-12T21:14:51.081Z,71.45
2023-02-12T21:17:24.705Z,71.66
2023-02-12T21:19:54.552Z,70.78
2023-02-12T21:22:22.432Z,70.76
2023-02-12T21:25:01.760Z,71.57
2023-02-12T21:27:32.445Z,70.96
2023-02-12T21:30:00.296Z,71.85
2023-02-12T21:32:28.454Z,71.30
2023-02-12T21:34:56.453Z,71.74
2023-02-12T21:37:24.289Z,72.87
2023-02-12T21:39:53.516Z,72.76
2023-02-12T21:42:21.389Z,73.77
2023-02-12T21:44:49.268Z,73.84
2023-02-12T21:47:19.157Z,73.84
2023-02-12T21:49:46.952Z,73.63
2023-02-12T21:52:14.818Z,73.51
2023-02-12T21:54:42.669Z,73.78
2023-02-12T21:57:19.661Z,73.78
2023-02-12T21:59:50.209Z,72.91
2023-02-12T22:02:24.192Z,73.18
2023-02-12T22:04:58.210Z,73.53
2023-02-12T22:07:26.697Z,72.65
2023-02-12T22:10:00.982Z,73.05
2023-02-12T22:12:32.488Z,73.19
2023-02-12T22:15:00.372Z,73.28
2023-02-12T22:17:33.371Z,73.99
2023-02-12T22:20:01.527Z,73.98
2023-02-12T22:22:31.420Z,73.34
2023-02-12T22:24:59.329Z,72.96
2023-02-12T22:27:27.348Z,73.41
2023-02-12T22:29:56.596Z,73.00
2023-02-12T22:32:30.752Z,71.76
2023-02-12T22:35:00.769Z,72.55
2023-02-12T22:37:35.019Z,72.25
2023-02-12T22:40:02.811Z,72.70
2023-02-12T22:42:37.458Z,73.95
2023-02-12T22:45:07.930Z,73.60
2023-02-12T22:47:38.918Z,73.44
2023-02-12T22:50:10.878Z,72.12
2023-02-12T22:52:38.970Z,71.24
2023-02-12T22:55:12.299Z,71.49
2023-02-12T22:57:43.998Z,72.84
2023-02-12T23:00:28.558Z,72.63
2023-02-12T23:03:00.042Z,71.69
2023-02-12T23:05:30.381Z,71.22
2023-02-12T23:08:19.051Z,70.91
2023-02-12T23:10:47.404Z,70.95
2023-02-12T23:13:29.052Z,72.85
2023-02-12T23:15:59.786Z,73.49
2023-02-12T23:18:30.909Z,73.65
2023-02-12T23:21:01.989Z,72.24
2023-02-12T23:23:29.883Z,71.53
2023-02-12T23:25:57.774Z,71.64
2023-02-12T23:28:25.583Z,72.74
2023-02-12T23:30:53.687Z,71.06
2023-02-12T23:33:22.976Z,71.01
2023-02-12T23:35:50.918Z,71.94
2023-02-12T23:38:23.449Z,72.58
2023-02-12T23:40:52.165Z,72.11
2023-02-12T23:43:23.092Z,72.49
2023-02-12T23:45:53.698Z,71.45
2023-02-12T23:48:23.480Z,71.12
2023-02-12T23:50:56.950Z,71.25
2023-02-12T23:53:27.781Z,73.06
2023-02-12T23:55:58.276Z,74.20
2023-02-12T23:58:26.490Z,73.66
